createdAt,value
2019-04-26T00:01:21.417Z,22.94
2019-04-26T00:03:54.768Z,22.90
2019-04-26T00:06:28.704Z,22.87
2019-04-26T00:09:02.036Z,22.88
2019-04-26T00:11:38.965Z,22.97
2019-04-26T00:14:12.404Z,22.89
2019-04-26T00:16:45.728Z,22.86
2019-04-26T00:19:19.069Z,22.86
2019-04-26T00:21:52.670Z,22.83
2019-04-26T00:24:28.478Z,22.85
2019-04-26T00:27:01.643Z,22.83
2019-04-26T00:29:35.065Z,22.77
2019-04-26T00:32:08.956Z,22.76
2019-04-26T00:34:42.384Z,22.84
2019-04-26T00:37:15.939Z,22.75
2019-04-26T00:39:49.401Z,22.75
2019-04-26T00:42:23.983Z,22.69
2019-04-26T00:44:57.546Z,23.01
2019-04-26T00:47:32.436Z,22.87
2019-04-26T00:50:06.667Z,22.81
2019-04-26T00:52:40.137Z,22.79
2019-04-26T00:55:14.319Z,22.79
2019-04-26T00:57:47.960Z,22.77
2019-04-26T01:00:21.603Z,22.74
2019-04-26T01:02:54.911Z,22.81
2019-04-26T01:05:28.272Z,22.73
2019-04-26T01:08:01.571Z,22.79
2019-04-26T01:10:34.734Z,22.75
2019-04-26T01:13:08.247Z,22.71
2019-04-26T01:15:41.598Z,22.70
2019-04-26T01:18:16.755Z,22.68
2019-04-26T01:20:50.238Z,22.67
2019-04-26T01:23:23.611Z,22.88
2019-04-26T01:26:17.936Z,22.75
2019-04-26T01:29:04.677Z,22.96
2019-04-26T01:31:41.247Z,22.78
2019-04-26T01:34:14.600Z,22.70
2019-04-26T01:36:47.918Z,22.67
2019-04-26T01:39:22.509Z,22.64
2019-04-26T01:41:56.129Z,22.64
2019-04-26T01:44:30.945Z,22.60
2019-04-26T01:47:04.258Z,22.72
2019-04-26T01:49:37.599Z,22.65
2019-04-26T01:52:10.911Z,22.62
2019-04-26T01:54:44.562Z,22.62
2019-04-26T01:57:17.861Z,22.84
2019-04-26T01:59:51.759Z,22.70
2019-04-26T02:02:25.686Z,22.63
2019-04-26T02:05:01.691Z,22.58
2019-04-26T02:07:35.283Z,22.87
2019-04-26T02:10:13.869Z,22.69
2019-04-26T02:12:47.784Z,22.62
2019-04-26T02:15:23.958Z,22.60
2019-04-26T02:17:57.259Z,22.56
2019-04-26T02:20:49.898Z,22.72
2019-04-26T02:23:23.637Z,22.61
2019-04-26T02:25:58.139Z,22.78
2019-04-26T02:28:32.404Z,22.67
2019-04-26T02:31:05.797Z,22.61
2019-04-26T02:33:39.139Z,22.60
2019-04-26T02:36:12.586Z,22.59
2019-04-26T02:38:45.940Z,22.54
2019-04-26T02:41:19.249Z,22.54
2019-04-26T02:43:53.362Z,22.48
2019-04-26T02:46:31.198Z,22.46
2019-04-26T02:49:04.999Z,22.45
2019-04-26T02:51:41.575Z,22.42
2019-04-26T02:54:27.884Z,22.40
2019-04-26T02:57:02.338Z,22.41
2019-04-26T02:59:40.575Z,22.61
2019-04-26T03:02:16.751Z,22.50
2019-04-26T03:04:50.417Z,22.45
2019-04-26T03:07:33.847Z,22.44
2019-04-26T03:10:07.530Z,22.43
2019-04-26T03:12:43.016Z,22.42
2019-04-26T03:15:18.525Z,22.43
2019-04-26T03:18:02.975Z,22.42
2019-04-26T03:20:40.024Z,22.37
2019-04-26T03:23:56.194Z,22.34
2019-04-26T03:26:31.605Z,22.33
2019-04-26T03:29:18.320Z,22.62
2019-04-26T03:32:16.739Z,22.43
2019-04-26T03:34:56.023Z,22.41
2019-04-26T03:37:34.560Z,22.53
2019-04-26T03:40:11.197Z,22.38
2019-04-26T03:43:08.233Z,22.35
2019-04-26T03:46:05.903Z,22.34
2019-04-26T03:49:01.981Z,22.29
2019-04-26T03:51:59.405Z,22.34
2019-04-26T03:54:32.775Z,22.27
2019-04-26T03:57:14.985Z,22.51
2019-04-26T03:59:54.520Z,22.35
2019-04-26T04:02:41.512Z,22.35
2019-04-26T04:05:21.327Z,22.44
2019-04-26T04:07:54.657Z,22.53
2019-04-26T04:10:41.940Z,22.64
2019-04-26T04:13:28.407Z,22.72
2019-04-26T04:16:01.779Z,22.71
2019-04-26T04:18:35.035Z,22.69
2019-04-26T04:21:26.907Z,22.74
2019-04-26T04:24:08.977Z,22.84
2019-04-26T04:27:02.109Z,23.36
2019-04-26T04:29:48.586Z,23.34
2019-04-26T04:32:24.699Z,23.78
2019-04-26T04:35:00.989Z,23.64
2019-04-26T04:37:56.478Z,23.61
2019-04-26T04:40:37.256Z,23.75
2019-04-26T04:43:29.074Z,23.69
2019-04-26T04:46:05.958Z,23.67
2019-04-26T04:49:03.928Z,23.68
2019-04-26T04:52:09.254Z,23.68
2019-04-26T04:55:06.387Z,23.74
2019-04-26T04:57:50.306Z,23.65
2019-04-26T05:00:40.532Z,23.87
2019-04-26T05:03:32.373Z,23.73
2019-04-26T05:06:21.401Z,23.67
2019-04-26T05:08:57.083Z,23.66
2019-04-26T05:11:39.176Z,23.64
2019-04-26T05:14:32.508Z,23.61
2019-04-26T05:17:33.443Z,23.59
2019-04-26T05:20:22.090Z,23.61
2019-04-26T05:23:10.588Z,23.55
2019-04-26T05:26:13.057Z,23.50
2019-04-26T05:29:08.046Z,23.53
2019-04-26T05:32:10.417Z,23.49
2019-04-26T05:34:52.927Z,23.74
2019-04-26T05:37:48.231Z,23.56
2019-04-26T05:40:40.582Z,23.91
2019-04-26T05:43:36.663Z,23.77
2019-04-26T05:46:28.310Z,23.62
2019-04-26T05:49:16.989Z,23.51
2019-04-26T05:52:02.398Z,23.51
2019-04-26T05:57:38.746Z,23.42
2019-04-26T06:00:17.636Z,23.85
2019-04-26T06:03:15.142Z,23.19
2019-04-26T06:05:58.572Z,23.49
2019-04-26T06:08:57.963Z,23.42
2019-04-26T06:11:46.463Z,23.40
2019-04-26T06:14:41.294Z,23.73
2019-04-26T06:17:33.718Z,23.54
2019-04-26T06:20:28.208Z,23.06
2019-04-26T06:23:19.920Z,23.45
2019-04-26T06:26:17.714Z,23.37
2019-04-26T06:29:03.394Z,23.80
2019-04-26T06:31:42.168Z,23.59
2019-04-26T06:34:18.207Z,23.37
2019-04-26T06:36:57.905Z,23.36
2019-04-26T06:39:37.259Z,23.34
2019-04-26T06:42:28.935Z,23.64
2019-04-26T06:45:11.576Z,23.42
2019-04-26T06:47:57.458Z,23.37
2019-04-26T06:50:46.435Z,23.38
2019-04-26T06:53:38.166Z,23.36
2019-04-26T06:56:34.301Z,23.49
2019-04-26T06:59:36.232Z,23.34
2019-04-26T07:02:19.981Z,23.31
2019-04-26T07:05:20.613Z,23.24
2019-04-26T07:08:21.203Z,23.27
2019-04-26T07:11:29.655Z,23.43
2019-04-26T07:14:14.475Z,23.23
2019-04-26T07:17:12.261Z,23.24
2019-04-26T07:20:07.771Z,23.18
2019-04-26T07:23:13.184Z,23.19
2019-04-26T07:26:06.269Z,23.41
2019-04-26T07:29:01.163Z,23.25
2019-04-26T07:31:53.300Z,23.20
2019-04-26T07:34:44.876Z,23.14
2019-04-26T07:37:39.816Z,23.12
2019-04-26T07:40:21.876Z,23.12
2019-04-26T07:43:10.557Z,23.15
2019-04-26T07:45:49.807Z,23.43
2019-04-26T07:48:50.571Z,23.28
2019-04-26T07:51:44.748Z,23.23
2019-04-26T07:54:54.414Z,23.27
2019-04-26T07:57:37.482Z,23.25
2019-04-26T08:00:20.769Z,23.27
2019-04-26T08:03:04.175Z,23.24
2019-04-26T08:05:57.167Z,23.58
2019-04-26T08:08:39.221Z,23.38
2019-04-26T08:11:21.051Z,23.30
2019-04-26T08:14:10.694Z,23.33
2019-04-26T08:16:59.460Z,23.35
2019-04-26T08:19:39.144Z,23.65
2019-04-26T08:22:20.443Z,23.57
2019-04-26T08:24:47.737Z,23.82
2019-04-26T08:27:24.180Z,23.66
2019-04-26T08:29:58.445Z,23.92
2019-04-26T08:32:35.658Z,23.72
2019-04-26T08:35:16.876Z,23.67
2019-04-26T08:37:45.069Z,23.68
2019-04-26T08:40:27.569Z,23.61
2019-04-26T08:42:57.359Z,23.61
2019-04-26T08:45:29.577Z,23.56
2019-04-26T08:48:03.146Z,23.54
2019-04-26T08:50:36.778Z,23.52
2019-04-26T08:53:11.789Z,23.64
2019-04-26T08:55:45.149Z,23.53
2019-04-26T08:58:18.885Z,23.50
2019-04-26T09:00:52.218Z,23.56
2019-04-26T09:03:25.549Z,23.69
2019-04-26T09:05:59.301Z,23.56
2019-04-26T09:08:33.632Z,23.54
2019-04-26T09:11:07.166Z,23.56
2019-04-26T09:13:42.535Z,23.80
2019-04-26T09:16:16.558Z,23.56
2019-04-26T09:18:54.139Z,23.95
2019-04-26T09:21:25.026Z,23.79
2019-04-26T09:23:58.417Z,23.68
2019-04-26T09:26:33.572Z,23.62
2019-04-26T09:29:07.219Z,23.56
2019-04-26T09:31:40.632Z,23.59
2019-04-26T09:34:14.002Z,23.63
2019-04-26T09:36:47.339Z,23.63
2019-04-26T09:39:20.691Z,23.63
2019-04-26T09:41:54.041Z,23.65
2019-04-26T09:44:27.333Z,23.63
2019-04-26T09:47:00.862Z,23.65
2019-04-26T09:49:37.404Z,23.58
2019-04-26T09:52:09.213Z,23.62
2019-04-26T09:54:42.560Z,23.55
2019-04-26T09:57:16.079Z,23.83
2019-04-26T09:59:52.017Z,23.58
2019-04-26T10:02:29.513Z,24.00
2019-04-26T10:05:02.674Z,23.78
2019-04-26T10:07:37.530Z,23.70
2019-04-26T10:10:22.390Z,23.69
2019-04-26T10:12:46.561Z,23.67
2019-04-26T10:15:22.469Z,23.61
2019-04-26T10:17:54.903Z,23.59
2019-04-26T10:20:28.278Z,23.64
2019-04-26T10:23:01.747Z,23.61
2019-04-26T10:25:35.186Z,23.63
2019-04-26T10:28:11.787Z,23.62
2019-04-26T10:30:43.959Z,23.65
2019-04-26T10:33:18.622Z,23.57
2019-04-26T10:35:52.637Z,23.67
2019-04-26T10:38:28.022Z,23.59
2019-04-26T10:41:01.408Z,23.98
2019-04-26T10:43:34.858Z,23.82
2019-04-26T10:46:08.165Z,23.76
2019-04-26T10:48:41.502Z,23.75
2019-04-26T10:51:14.814Z,23.68
2019-04-26T10:53:50.321Z,23.75
2019-04-26T10:56:24.268Z,23.69
2019-04-26T10:58:58.378Z,23.87
2019-04-26T11:01:31.695Z,23.83
2019-04-26T11:04:05.159Z,23.80
2019-04-26T11:06:38.479Z,23.72
2019-04-26T11:09:12.214Z,24.02
2019-04-26T11:11:45.505Z,23.85
2019-04-26T11:14:22.722Z,23.77
2019-04-26T11:16:53.935Z,23.79
2019-04-26T11:19:27.260Z,23.76
2019-04-26T11:22:00.832Z,23.77
2019-04-26T11:24:34.377Z,23.78
2019-04-26T11:27:09.711Z,23.79
2019-04-26T11:29:53.235Z,23.81
2019-04-26T11:32:18.349Z,23.74
2019-04-26T11:34:54.499Z,23.72
2019-04-26T11:37:26.822Z,23.71
2019-04-26T11:40:00.137Z,23.71
2019-04-26T11:42:33.436Z,23.79
2019-04-26T11:45:10.767Z,23.80
2019-04-26T11:47:55.522Z,23.75
2019-04-26T11:50:19.223Z,23.90
2019-04-26T11:52:52.589Z,23.92
2019-04-26T11:55:29.660Z,23.92
2019-04-26T11:58:01.296Z,23.85
2019-04-26T12:00:34.734Z,23.87
2019-04-26T12:03:08.069Z,23.95
2019-04-26T12:05:41.488Z,23.89
2019-04-26T12:08:14.812Z,23.82
2019-04-26T12:10:48.210Z,23.86
2019-04-26T12:13:24.983Z,23.89
2019-04-26T12:15:56.719Z,23.89
2019-04-26T12:18:30.139Z,23.96
2019-04-26T12:21:03.519Z,23.94
2019-04-26T12:23:36.809Z,24.02
2019-04-26T12:26:10.366Z,24.01
2019-04-26T12:28:43.698Z,24.01
2019-04-26T12:31:17.151Z,23.99
2019-04-26T12:33:50.490Z,23.99
2019-04-26T12:36:23.839Z,24.14
2019-04-26T12:38:58.194Z,24.13
2019-04-26T12:41:40.198Z,24.35
2019-04-26T12:44:07.900Z,24.21
2019-04-26T12:46:43.909Z,24.13
2019-04-26T12:49:20.294Z,24.16
2019-04-26T12:51:52.305Z,24.23
2019-04-26T12:54:25.613Z,24.20
2019-04-26T12:57:01.624Z,24.24
2019-04-26T12:59:44.033Z,24.22
2019-04-26T13:02:10.225Z,24.25
2019-04-26T13:04:44.524Z,24.30
2019-04-26T13:07:24.018Z,24.64
2019-04-26T13:09:57.209Z,24.57
2019-04-26T13:12:29.851Z,24.52
2019-04-26T13:15:39.339Z,24.62
2019-04-26T13:18:14.240Z,24.64
2019-04-26T13:20:47.537Z,24.86
2019-04-26T13:23:20.926Z,24.86
2019-04-26T13:25:55.459Z,24.93
2019-04-26T13:28:29.437Z,25.00
2019-04-26T13:31:02.871Z,25.31
2019-04-26T13:33:37.862Z,25.31
2019-04-26T13:36:11.299Z,25.42
2019-04-26T13:38:45.144Z,25.59
2019-04-26T13:41:18.709Z,25.71
2019-04-26T13:43:52.050Z,25.83
2019-04-26T13:46:26.454Z,25.65
2019-04-26T13:48:59.971Z,25.43
2019-04-26T13:51:33.276Z,25.25
2019-04-26T13:54:07.893Z,25.13
2019-04-26T13:56:41.225Z,25.02
2019-04-26T13:59:14.813Z,25.67
2019-04-26T14:01:48.124Z,25.47
2019-04-26T14:04:21.719Z,25.87
2019-04-26T14:06:55.383Z,25.88
2019-04-26T14:09:28.745Z,25.80
2019-04-26T14:12:10.893Z,25.72
2019-04-26T14:14:37.261Z,25.46
2019-04-26T14:17:10.637Z,25.26
2019-04-26T14:19:45.392Z,25.12
2019-04-26T14:22:18.979Z,24.99
2019-04-26T14:24:53.052Z,24.90
2019-04-26T14:27:27.417Z,24.88
2019-04-26T14:30:02.539Z,24.84
2019-04-26T14:32:36.955Z,25.07
2019-04-26T14:35:11.328Z,24.92
2019-04-26T14:37:49.930Z,24.89
2019-04-26T14:40:23.093Z,24.83
2019-04-26T14:43:06.669Z,24.79
2019-04-26T14:45:31.657Z,24.75
2019-04-26T14:48:05.502Z,24.74
2019-04-26T14:50:38.959Z,24.90
2019-04-26T14:53:12.334Z,24.79
2019-04-26T14:55:45.701Z,24.73
2019-04-26T14:58:23.859Z,24.68
2019-04-26T15:00:58.410Z,24.68
2019-04-26T15:03:30.782Z,24.70
2019-04-26T15:06:04.312Z,24.67
2019-04-26T15:08:40.618Z,24.64
2019-04-26T15:11:12.924Z,24.89
2019-04-26T15:13:46.411Z,24.77
2019-04-26T15:16:22.192Z,24.73
2019-04-26T15:18:55.946Z,24.68
2019-04-26T15:21:33.052Z,24.65
2019-04-26T15:24:05.102Z,24.74
2019-04-26T15:26:38.627Z,24.66
2019-04-26T15:29:12.634Z,24.68
2019-04-26T15:31:46.156Z,24.60
2019-04-26T15:34:23.616Z,24.57
2019-04-26T15:36:54.658Z,24.55
2019-04-26T15:39:28.014Z,24.54
2019-04-26T15:42:03.082Z,24.53
2019-04-26T15:44:36.585Z,24.51
2019-04-26T15:47:09.923Z,24.51
2019-04-26T15:49:43.269Z,24.52
2019-04-26T15:52:16.586Z,24.49
2019-04-26T15:54:52.905Z,24.48
2019-04-26T15:57:31.185Z,24.46
2019-04-26T16:00:00.002Z,24.48
2019-04-26T16:02:35.032Z,24.58
2019-04-26T16:05:08.370Z,24.54
2019-04-26T16:07:42.984Z,24.56
2019-04-26T16:10:16.332Z,24.52
2019-04-26T16:12:49.679Z,24.50
2019-04-26T16:15:23.365Z,24.55
2019-04-26T16:17:56.876Z,24.59
2019-04-26T16:20:31.694Z,24.58
2019-04-26T16:23:07.299Z,24.57
2019-04-26T16:25:40.480Z,24.59
2019-04-26T16:28:13.972Z,24.59
2019-04-26T16:30:47.299Z,24.58
2019-04-26T16:33:20.707Z,24.56
2019-04-26T16:35:57.505Z,24.54
2019-04-26T16:38:29.098Z,24.69
2019-04-26T16:41:03.325Z,24.58
2019-04-26T16:43:40.700Z,24.80
2019-04-26T16:46:20.090Z,24.68
2019-04-26T16:48:47.015Z,24.65
2019-04-26T16:51:23.333Z,24.63
2019-04-26T16:54:06.826Z,24.62
2019-04-26T16:56:33.652Z,24.57
2019-04-26T16:59:14.253Z,24.73
2019-04-26T17:01:47.182Z,24.63
2019-04-26T17:04:20.214Z,24.58
2019-04-26T17:06:53.175Z,24.56
2019-04-26T17:09:29.667Z,24.75
2019-04-26T17:12:02.533Z,24.67
2019-04-26T17:14:36.363Z,24.56
2019-04-26T17:17:10.840Z,24.53
2019-04-26T17:19:44.913Z,24.73
2019-04-26T17:22:18.290Z,24.59
2019-04-26T17:24:53.218Z,24.52
2019-04-26T17:27:26.751Z,24.48
2019-04-26T17:30:00.131Z,24.71
2019-04-26T17:32:35.036Z,24.57
2019-04-26T17:35:09.326Z,24.49
2019-04-26T17:37:42.702Z,24.44
2019-04-26T17:40:16.087Z,24.41
2019-04-26T17:42:51.139Z,24.37
2019-04-26T17:45:24.610Z,24.35
2019-04-26T17:47:57.984Z,24.32
2019-04-26T17:50:31.369Z,24.32
2019-04-26T17:53:06.507Z,24.29
2019-04-26T17:55:41.478Z,24.28
2019-04-26T17:58:17.790Z,24.25
2019-04-26T18:00:51.548Z,24.25
2019-04-26T18:03:26.218Z,24.24
2019-04-26T18:06:01.058Z,24.23
2019-04-26T18:08:41.077Z,24.23
2019-04-26T18:11:18.967Z,24.22
2019-04-26T18:13:47.224Z,24.36
2019-04-26T18:16:22.372Z,24.27
2019-04-26T18:18:56.144Z,24.33
2019-04-26T18:21:29.523Z,24.25
2019-04-26T18:24:02.976Z,24.23
2019-04-26T18:26:36.279Z,24.18
2019-04-26T18:29:09.565Z,24.30
2019-04-26T18:31:43.786Z,24.23
2019-04-26T18:34:17.241Z,24.41
2019-04-26T18:36:50.596Z,24.28
2019-04-26T18:39:26.472Z,24.23
2019-04-26T18:42:04.341Z,24.20
2019-04-26T18:44:36.810Z,24.40
2019-04-26T18:47:09.053Z,24.30
2019-04-26T18:49:43.578Z,24.42
2019-04-26T18:52:19.389Z,24.29
2019-04-26T18:54:52.531Z,24.24
2019-04-26T18:57:26.116Z,24.20
2019-04-26T18:59:59.421Z,24.15
2019-04-26T19:02:33.306Z,24.12
2019-04-26T19:05:07.922Z,24.10
2019-04-26T19:07:46.237Z,24.08
2019-04-26T19:10:18.011Z,24.31
2019-04-26T19:12:52.305Z,24.16
2019-04-26T19:15:25.710Z,24.10
2019-04-26T19:18:00.145Z,24.06
2019-04-26T19:20:34.299Z,24.06
2019-04-26T19:23:07.656Z,24.11
2019-04-26T19:25:41.438Z,24.07
2019-04-26T19:28:15.987Z,24.07
2019-04-26T19:30:51.490Z,24.04
2019-04-26T19:33:24.574Z,24.14
2019-04-26T19:35:57.877Z,24.07
2019-04-26T19:38:32.905Z,24.05
2019-04-26T19:41:06.347Z,24.01
2019-04-26T19:43:43.521Z,24.00
2019-04-26T19:46:17.075Z,23.97
2019-04-26T19:48:55.517Z,23.96
2019-04-26T19:51:27.069Z,23.95
2019-04-26T19:54:00.053Z,24.16
2019-04-26T19:56:33.703Z,24.05
2019-04-26T19:59:07.036Z,24.02
2019-04-26T20:01:41.966Z,23.98
2019-04-26T20:04:15.412Z,23.95
2019-04-26T20:06:52.421Z,23.93
2019-04-26T20:09:26.572Z,24.09
2019-04-26T20:12:02.335Z,24.01
2019-04-26T20:14:47.203Z,24.23
2019-04-26T20:17:13.130Z,24.09
2019-04-26T20:19:47.692Z,24.02
2019-04-26T20:22:28.105Z,23.96
2019-04-26T20:24:57.427Z,23.91
2019-04-26T20:27:32.221Z,23.87
2019-04-26T20:30:07.208Z,23.87
2019-04-26T20:32:44.366Z,23.82
2019-04-26T20:35:19.675Z,23.82
2019-04-26T20:37:56.204Z,23.81
2019-04-26T20:40:28.379Z,23.78
2019-04-26T20:43:05.702Z,23.91
2019-04-26T20:45:41.357Z,23.84
2019-04-26T20:48:11.818Z,23.79
2019-04-26T20:50:45.155Z,23.76
2019-04-26T20:53:18.465Z,23.75
2019-04-26T20:55:52.819Z,23.71
2019-04-26T20:58:26.315Z,23.70
2019-04-26T21:01:01.356Z,23.71
2019-04-26T21:03:41.922Z,23.69
2019-04-26T21:06:11.441Z,23.68
2019-04-26T21:08:44.972Z,23.64
2019-04-26T21:11:18.309Z,23.65
2019-04-26T21:13:51.994Z,23.61
2019-04-26T21:16:25.480Z,23.59
2019-04-26T21:18:58.766Z,23.59
2019-04-26T21:21:32.188Z,23.57
2019-04-26T21:24:06.218Z,23.54
2019-04-26T21:26:39.566Z,23.54
2019-04-26T21:29:20.069Z,23.53
2019-04-26T21:31:49.615Z,23.65
2019-04-26T21:34:23.092Z,23.55
2019-04-26T21:36:56.612Z,23.51
2019-04-26T21:39:29.991Z,23.53
2019-04-26T21:42:03.625Z,23.51
2019-04-26T21:44:36.995Z,23.48
2019-04-26T21:47:10.405Z,23.47
2019-04-26T21:49:44.831Z,23.46
2019-04-26T21:52:21.425Z,23.67
2019-04-26T21:54:56.381Z,23.51
2019-04-26T21:57:28.572Z,23.47
2019-04-26T22:00:04.011Z,23.45
2019-04-26T22:02:38.558Z,23.42
2019-04-26T22:05:14.897Z,23.42
2019-04-26T22:07:47.814Z,23.67
2019-04-26T22:10:21.260Z,23.52
2019-04-26T22:12:54.569Z,23.48
2019-04-26T22:15:29.641Z,23.44
2019-04-26T22:18:03.281Z,23.42
2019-04-26T22:20:37.747Z,23.40
2019-04-26T22:23:16.428Z,23.38
2019-04-26T22:25:48.870Z,23.36
2019-04-26T22:28:23.550Z,23.37
2019-04-26T22:30:59.357Z,23.59
2019-04-26T22:33:34.220Z,23.46
2019-04-26T22:36:07.722Z,23.42
2019-04-26T22:38:42.488Z,23.39
2019-04-26T22:41:16.519Z,23.34
2019-04-26T22:43:54.079Z,23.31
2019-04-26T22:46:29.691Z,23.31
2019-04-26T22:49:03.716Z,23.28
2019-04-26T22:51:37.195Z,23.28
2019-04-26T22:54:10.742Z,23.25
2019-04-26T22:56:46.045Z,23.52
2019-04-26T22:59:19.262Z,23.39
2019-04-26T23:01:53.657Z,23.33
2019-04-26T23:04:27.098Z,23.32
2019-04-26T23:07:00.480Z,23.28
2019-04-26T23:09:33.778Z,23.31
2019-04-26T23:12:07.253Z,23.27
2019-04-26T23:14:40.635Z,23.23
2019-04-26T23:17:14.198Z,23.21
2019-04-26T23:19:49.399Z,23.19
2019-04-26T23:22:26.334Z,23.17
2019-04-26T23:24:58.127Z,23.20
2019-04-26T23:27:33.333Z,23.19
2019-04-26T23:30:06.836Z,23.14
2019-04-26T23:32:40.354Z,23.16
2019-04-26T23:35:13.843Z,23.13
2019-04-26T23:37:47.646Z,23.10
2019-04-26T23:40:25.744Z,23.10
2019-04-26T23:42:56.215Z,23.07
2019-04-26T23:45:29.534Z,23.25
2019-04-26T23:48:03.605Z,23.17
2019-04-26T23:50:37.074Z,23.35
2019-04-26T23:53:10.434Z,23.20
2019-04-26T23:55:45.215Z,23.14
2019-04-26T23:58:18.793Z,23.10
